Compagnie Fsx-France! Un nouveau look pour votre VA, par: Julien & Co




 METAR ET TAF INFORMATION
METAR FOR LIEA
ADDS - METARS form results

(1132 UTC 26 May 2020)
Data provider http://aviationweather.gov/metar/data/
 
METAR text: LIEA 261120Z 19010KT 9999 FEW035 25/18 Q1023
Conditions at: LIEA (ALGHERO , IT) observed 1120 UTC 26 May 2020
Temperature: 25.0°C (77°F)
Dewpoint: 18.0°C (64°F) [RH = 65%]
Pressure (altimeter): 30.21 inches Hg (1023.0 mb)
Winds: from the S (190 degrees) at 12 MPH (10 knots; 5.1 m/s)
Visibility: 6 or more miles (10+ km)
Ceiling: at least 12,000 feet AGL
Clouds: few clouds at 3500 feet AGL
Weather: no significant weather observed at this time

METAR text: LIEA 261050Z 19010KT CAVOK 24/18 Q1024
Conditions at: LIEA (ALGHERO , IT) observed 1050 UTC 26 May 2020
Temperature: 24.0°C (75°F)
Dewpoint: 18.0°C (64°F) [RH = 69%]
Pressure (altimeter): 30.24 inches Hg (1024.0 mb)
Winds: from the S (190 degrees) at 12 MPH (10 knots; 5.1 m/s)
Visibility: 6 or more miles (10+ km)
Ceiling: ceiling and visibility are OK
Clouds: unknown
Weather: no significant weather observed at this time

Forecast for: LIEA (ALGHERO , IT)
Text: TAF LIEA 261100Z 2612/2712 29010KT CAVOK
Forecast period: 1200 to 1600 UTC 26 May 2020
Forecast type: FROM: standard forecast or significant change
Winds: from the WNW (290 degrees) at 12 MPH (10 knots; 5.1 m/s)
Visibility: 6 or more miles 10+ km)
Ceiling: unknown
Clouds: missing
Weather: NSW  (no significant weather)
Text: BECMG 2616/2618 04008KT
Forecast period: 1600 UTC 26 May 2020 to 1200 UTC 27 May 2020
Forecast type: BECOMING: Conditions expected to become as follows by 1800 UTC 26 May 2020
Winds: from the NE (40 degrees) at 9 MPH (8 knots; 4.1 m/s)
Visibility: 6 or more miles 10+ km)
Ceiling: unknown
Clouds: missing
Weather: NSW  (no significant weather)

 AÉROPORT DE AÉROPORT

 INFORMATIONS DE PISTE
Piste 02 Longueur de la piste 3000 m = 9843 ft Largeur de la piste 45 m = 148 ft
Élévation de la piste 69 ft Seuil de la piste déplacés 0 ft Runway heading 25
Piste 20 Longueur de la piste 3000 m = 9843 ft Largeur de la piste 45 m = 148 ft
Élévation de la piste 87 ft Seuil de la piste déplacés 0 ft Runway heading 205

 AÉROPORT FRÉQUENCES
Type APP Nom APP Féquence 128.55 MHZ
Type ATIS Nom ATIS Féquence 125.025 MHZ
Type TWR Nom TWR Féquence 118.85 MHZ

 AIDES A LA NAVIGATION
Type TACAN Nom Alghero Féquence 109300 KHZ
Type VORTAC Nom Alghero Féquence 113800 KHZ
Type NDB Nom Alghero Féquence 382 KHZ